createdAt,value
2018-11-04T00:04:58.174Z,18
2018-11-04T00:10:00.604Z,20
2018-11-04T00:15:03.052Z,21
2018-11-04T00:20:05.493Z,20
2018-11-04T00:25:07.955Z,20
2018-11-04T00:30:10.372Z,20
2018-11-04T00:35:12.811Z,19
2018-11-04T00:40:15.247Z,22
2018-11-04T00:45:17.747Z,23
2018-11-04T00:50:20.136Z,24
2018-11-04T00:55:22.572Z,24
2018-11-04T01:00:25.037Z,23
2018-11-04T01:05:27.444Z,23
2018-11-04T01:10:29.974Z,23
2018-11-04T01:15:32.319Z,23
2018-11-04T01:20:34.776Z,22
2018-11-04T01:25:37.217Z,24
2018-11-04T01:30:39.655Z,24
2018-11-04T01:35:42.091Z,23
2018-11-04T01:40:44.536Z,21
2018-11-04T01:45:46.981Z,22
2018-11-04T01:50:49.410Z,23
2018-11-04T01:55:51.884Z,22
2018-11-04T02:00:54.315Z,21
2018-11-04T02:05:56.735Z,22
2018-11-04T02:10:59.182Z,22
2018-11-04T02:16:01.610Z,23
2018-11-04T02:26:06.505Z,20
2018-11-04T02:31:08.946Z,20
2018-11-04T02:36:11.379Z,20
2018-11-04T02:41:13.886Z,20
2018-11-04T02:46:16.247Z,19
2018-11-04T02:51:18.704Z,17
2018-11-04T02:56:21.162Z,17
2018-11-04T03:01:23.574Z,17
2018-11-04T03:06:26.031Z,16
2018-11-04T03:11:28.489Z,14
2018-11-04T03:16:30.996Z,15
2018-11-04T03:21:33.350Z,14
2018-11-04T03:26:35.788Z,13
2018-11-04T03:31:38.210Z,13
2018-11-04T03:36:40.662Z,15
2018-11-04T03:41:43.095Z,14
2018-11-04T03:46:45.531Z,16
2018-11-04T03:51:47.976Z,16
2018-11-04T04:01:52.874Z,15
2018-11-04T04:06:55.301Z,14
2018-11-04T04:11:57.741Z,15
2018-11-04T04:17:00.180Z,14
2018-11-04T04:22:02.606Z,15
2018-11-04T04:27:05.121Z,15
2018-11-04T04:32:07.487Z,17
2018-11-04T04:37:09.930Z,16
2018-11-04T04:42:12.395Z,17
2018-11-04T04:47:14.903Z,16
2018-11-04T04:52:17.250Z,15
2018-11-04T04:57:19.695Z,16
2018-11-04T05:02:22.159Z,15
2018-11-04T05:07:24.575Z,15
2018-11-04T05:12:27.009Z,16
2018-11-04T05:17:29.477Z,15
2018-11-04T05:22:31.887Z,15
2018-11-04T05:27:34.354Z,14
2018-11-04T05:32:36.839Z,15
2018-11-04T05:37:39.268Z,14
2018-11-04T05:42:41.646Z,15
2018-11-04T05:47:44.088Z,20
2018-11-04T05:52:46.538Z,15
2018-11-04T05:57:49.019Z,10
2018-11-04T06:02:51.411Z,10
2018-11-04T06:07:53.844Z,9
2018-11-04T06:12:56.283Z,8
2018-11-04T06:17:58.739Z,9
2018-11-04T06:23:01.169Z,8
2018-11-04T06:28:03.606Z,7
2018-11-04T06:33:06.050Z,8
2018-11-04T06:38:08.485Z,8
2018-11-04T06:43:10.933Z,7
2018-11-04T06:48:13.377Z,7
2018-11-04T06:53:15.835Z,7
2018-11-04T06:58:18.251Z,7
2018-11-04T07:03:20.729Z,7
2018-11-04T07:08:23.132Z,7
2018-11-04T07:13:25.599Z,6
2018-11-04T07:18:28.013Z,5
2018-11-04T07:23:30.455Z,5
2018-11-04T07:28:32.925Z,6
2018-11-04T07:33:35.337Z,5
2018-11-04T07:38:37.790Z,4
2018-11-04T07:43:40.203Z,4
2018-11-04T07:48:42.669Z,6
2018-11-04T07:53:45.086Z,16
2018-11-04T07:58:47.527Z,5
2018-11-04T08:03:49.979Z,7
2018-11-04T08:08:52.415Z,12
2018-11-04T08:13:54.854Z,6
2018-11-04T08:18:57.301Z,7
2018-11-04T08:23:59.777Z,4
2018-11-04T08:29:02.204Z,4
2018-11-04T08:34:04.608Z,4
2018-11-04T08:39:07.058Z,3
2018-11-04T08:44:09.505Z,4
2018-11-04T08:49:11.944Z,3
2018-11-04T08:54:14.365Z,3
2018-11-04T08:59:16.815Z,3
2018-11-04T09:04:19.266Z,4
2018-11-04T09:09:21.696Z,3
2018-11-04T09:14:24.223Z,3
2018-11-04T09:19:26.573Z,2
2018-11-04T09:24:29.019Z,3
2018-11-04T09:29:31.447Z,4
2018-11-04T09:34:33.935Z,4
2018-11-04T09:39:36.333Z,5
2018-11-04T09:44:38.766Z,4
2018-11-04T09:49:41.230Z,3
2018-11-04T09:54:43.702Z,3
2018-11-04T09:59:46.258Z,3
2018-11-04T10:04:48.527Z,3
2018-11-04T10:09:50.978Z,3
2018-11-04T10:14:53.418Z,3
2018-11-04T10:19:56.172Z,3
2018-11-04T10:24:58.313Z,4
2018-11-04T10:30:00.809Z,4
2018-11-04T10:35:03.197Z,3
2018-11-04T10:40:05.663Z,4
2018-11-04T10:45:08.067Z,4
2018-11-04T10:50:10.497Z,4
2018-11-04T10:55:12.976Z,4
2018-11-04T11:00:15.450Z,4
2018-11-04T11:05:17.812Z,4
2018-11-04T11:10:20.278Z,4
2018-11-04T11:15:22.699Z,4
2018-11-04T11:20:25.133Z,4
2018-11-04T11:25:27.573Z,5
2018-11-04T11:30:30.035Z,5
2018-11-04T11:35:32.452Z,5
2018-11-04T11:40:34.936Z,5
2018-11-04T11:45:37.343Z,5
2018-11-04T11:50:39.777Z,6
2018-11-04T11:55:42.250Z,6
2018-11-04T12:00:44.700Z,6
2018-11-04T12:05:47.095Z,6
2018-11-04T12:10:49.542Z,6
2018-11-04T12:15:51.986Z,6
2018-11-04T12:20:54.417Z,6
2018-11-04T12:25:56.848Z,6
2018-11-04T12:30:59.311Z,7
2018-11-04T12:36:01.752Z,7
2018-11-04T12:41:04.177Z,7
2018-11-04T12:46:06.668Z,7
2018-11-04T12:51:09.059Z,6
2018-11-04T12:56:11.503Z,7
2018-11-04T13:01:13.949Z,6
2018-11-04T13:06:16.383Z,7
2018-11-04T13:11:18.903Z,7
2018-11-04T13:16:21.254Z,6
2018-11-04T13:26:26.159Z,7
2018-11-04T13:31:28.657Z,8
2018-11-04T13:36:31.049Z,7
2018-11-04T13:41:33.467Z,6
2018-11-04T13:46:35.904Z,7
2018-11-04T13:51:38.350Z,7
2018-11-04T13:56:40.794Z,8
2018-11-04T14:01:43.229Z,8
2018-11-04T14:06:45.679Z,7
2018-11-04T14:11:48.105Z,8
2018-11-04T14:16:50.582Z,8
2018-11-04T14:21:53.007Z,8
2018-11-04T14:26:55.436Z,8
2018-11-04T14:31:57.878Z,9
2018-11-04T14:37:00.315Z,8
2018-11-04T14:42:02.802Z,9
2018-11-04T14:47:05.197Z,10
2018-11-04T14:52:07.620Z,11
2018-11-04T14:57:10.082Z,11
2018-11-04T15:02:12.522Z,11
2018-11-04T15:07:14.987Z,10
2018-11-04T15:12:17.386Z,12
2018-11-04T15:17:19.836Z,11
2018-11-04T15:22:22.270Z,12
2018-11-04T15:27:24.710Z,10
2018-11-04T15:32:27.168Z,10
2018-11-04T15:37:29.637Z,10
2018-11-04T15:42:32.036Z,11
2018-11-04T15:47:34.471Z,10
2018-11-04T15:52:36.908Z,11
2018-11-04T15:57:39.344Z,11
2018-11-04T16:02:41.901Z,11
2018-11-04T16:07:44.230Z,11
2018-11-04T16:12:46.672Z,11
2018-11-04T16:17:49.104Z,11
2018-11-04T16:22:51.549Z,12
2018-11-04T16:27:53.996Z,12
2018-11-04T16:32:56.442Z,12
2018-11-04T16:37:58.986Z,13
2018-11-04T16:43:01.341Z,13
2018-11-04T16:48:03.750Z,15
2018-11-04T16:53:06.202Z,17
2018-11-04T16:58:08.619Z,16
2018-11-04T17:03:11.066Z,16
2018-11-04T17:08:13.541Z,16
2018-11-04T17:13:15.989Z,17
2018-11-04T17:18:18.453Z,18
2018-11-04T17:23:20.831Z,21
2018-11-04T17:28:23.266Z,22
2018-11-04T17:33:25.717Z,22
2018-11-04T17:38:28.208Z,24
2018-11-04T17:43:30.583Z,25
2018-11-04T17:48:33.027Z,25
2018-11-04T17:53:35.508Z,25
2018-11-04T17:58:37.931Z,26
2018-11-04T18:03:40.349Z,26
2018-11-04T18:08:42.805Z,28
2018-11-04T18:13:45.363Z,27
2018-11-04T18:18:47.671Z,33
2018-11-04T18:23:50.115Z,29
2018-11-04T18:28:52.550Z,32
2018-11-04T18:33:54.978Z,30
2018-11-04T18:38:57.430Z,30
2018-11-04T18:44:00.035Z,32
2018-11-04T18:49:02.323Z,33
2018-11-04T18:54:04.784Z,33
2018-11-04T18:59:07.259Z,34
2018-11-04T19:04:09.639Z,34
2018-11-04T19:09:12.092Z,32
2018-11-04T19:14:14.583Z,33
2018-11-04T19:19:16.959Z,34
2018-11-04T19:24:19.401Z,34
2018-11-04T19:29:21.853Z,34
2018-11-04T19:34:24.267Z,32
2018-11-04T19:39:26.707Z,34
2018-11-04T19:44:29.156Z,34
2018-11-04T19:49:31.595Z,34
2018-11-04T19:54:34.030Z,34
2018-11-04T19:59:36.503Z,34
2018-11-04T20:04:38.975Z,35
2018-11-04T20:09:41.378Z,35
2018-11-04T20:14:43.790Z,35
2018-11-04T20:19:46.321Z,36
2018-11-04T20:24:48.686Z,36
2018-11-04T20:29:51.126Z,34
2018-11-04T20:34:53.562Z,34
2018-11-04T20:39:56.003Z,35
2018-11-04T20:44:58.539Z,35
2018-11-04T20:50:00.884Z,34
2018-11-04T20:55:03.329Z,34
2018-11-04T21:00:10.754Z,35
2018-11-04T21:05:08.212Z,33
2018-11-04T21:10:10.646Z,34
2018-11-04T21:15:13.080Z,35
2018-11-04T21:20:15.532Z,33
2018-11-04T21:25:18.011Z,36
2018-11-04T21:30:20.415Z,36
2018-11-04T21:35:22.947Z,35
2018-11-04T21:40:25.315Z,33
2018-11-04T21:45:27.729Z,36
2018-11-04T21:50:30.159Z,35
2018-11-04T21:55:32.857Z,34
2018-11-04T22:00:35.059Z,33
2018-11-04T22:05:37.485Z,34
2018-11-04T22:10:40.112Z,33
2018-11-04T22:15:42.361Z,31
2018-11-04T22:20:44.833Z,33
2018-11-04T22:25:47.253Z,35
2018-11-04T22:30:49.684Z,33
2018-11-04T22:35:52.132Z,33
2018-11-04T22:40:54.566Z,35
2018-11-04T22:45:57.010Z,33
2018-11-04T22:50:59.454Z,33
2018-11-04T22:56:02.079Z,33
2018-11-04T23:01:04.325Z,33
2018-11-04T23:06:06.774Z,34
2018-11-04T23:11:09.217Z,33
2018-11-04T23:16:11.676Z,34
2018-11-04T23:21:14.094Z,35
2018-11-04T23:26:16.531Z,36
2018-11-04T23:31:18.962Z,35
2018-11-04T23:36:21.403Z,34
2018-11-04T23:41:23.853Z,35
2018-11-04T23:46:26.288Z,33
2018-11-04T23:51:29.115Z,31
2018-11-04T23:56:31.164Z,33
